createdAt,value
2018-07-15T00:00:30.970Z,76.30
2018-07-15T00:02:59.854Z,76.60
2018-07-15T00:05:28.625Z,76.90
2018-07-15T00:07:57.524Z,77.40
2018-07-15T00:10:26.453Z,78.00
2018-07-15T00:17:52.333Z,79.20
2018-07-15T00:20:21.288Z,79.80
2018-07-15T00:25:18.775Z,79.60
2018-07-15T00:27:47.605Z,79.70
2018-07-15T00:30:16.642Z,80.00
2018-07-15T00:32:45.651Z,80.60
2018-07-15T00:35:14.578Z,81.10
2018-07-15T00:37:43.455Z,81.00
2018-07-15T00:40:12.450Z,81.90
2018-07-15T00:42:41.339Z,82.40
2018-07-15T00:45:10.375Z,82.80
2018-07-15T00:50:07.836Z,83.40
2018-07-15T00:52:36.817Z,84.20
2018-07-15T00:55:06.179Z,83.80
2018-07-15T00:57:35.147Z,84.00
2018-07-15T01:00:04.198Z,84.00
2018-07-15T01:02:33.110Z,84.00
2018-07-15T01:05:02.084Z,84.30
2018-07-15T01:07:31.021Z,84.50
2018-07-15T01:10:00.895Z,84.90
2018-07-15T01:12:29.786Z,85.30
2018-07-15T01:14:58.663Z,85.60
2018-07-15T01:17:27.553Z,85.70
2018-07-15T01:19:56.395Z,85.80
2018-07-15T01:22:25.230Z,86.30
2018-07-15T01:24:55.005Z,86.60
2018-07-15T01:27:23.858Z,86.60
2018-07-15T01:29:52.782Z,87.00
2018-07-15T01:32:21.641Z,87.10
2018-07-15T01:34:50.441Z,87.90
2018-07-15T01:37:19.373Z,88.00
2018-07-15T01:42:16.726Z,88.80
2018-07-15T01:44:45.680Z,88.50
2018-07-15T01:47:14.666Z,88.50
2018-07-15T01:49:43.569Z,88.80
2018-07-15T01:52:12.365Z,89.10
2018-07-15T01:54:41.221Z,89.10
2018-07-15T01:57:10.030Z,89.70
2018-07-15T01:59:38.813Z,90.00
2018-07-15T02:07:16.388Z,90.10
2018-07-15T02:09:47.531Z,90.10
2018-07-15T02:12:16.496Z,90.30
2018-07-15T02:14:45.503Z,90.50
2018-07-15T02:17:14.587Z,90.70
2018-07-15T02:19:43.680Z,90.90
2018-07-15T02:22:12.670Z,90.80
2018-07-15T02:24:41.571Z,90.70
2018-07-15T02:34:36.036Z,91.20
2018-07-15T02:39:33.544Z,91.40
2018-07-15T02:44:30.915Z,91.60
2018-07-15T02:46:59.773Z,91.80
2018-07-15T02:49:28.733Z,92.00
2018-07-15T02:51:57.695Z,92.20
2018-07-15T02:54:26.445Z,92.30
2018-07-15T02:56:55.366Z,92.60
2018-07-15T02:59:24.261Z,92.70
2018-07-15T03:01:53.076Z,92.90
2018-07-15T03:04:22.049Z,93.00
2018-07-15T03:06:50.909Z,93.10
2018-07-15T03:11:48.389Z,93.30
2018-07-15T03:14:17.353Z,93.60
2018-07-15T03:16:46.300Z,93.60
2018-07-15T03:19:15.139Z,93.70
2018-07-15T03:21:44.109Z,93.70
2018-07-15T03:24:13.101Z,93.80
2018-07-15T03:26:41.937Z,93.90
2018-07-15T03:29:10.841Z,93.90
2018-07-15T03:31:39.695Z,94.10
2018-07-15T03:36:37.677Z,94.10
2018-07-15T03:39:07.357Z,94.20
2018-07-15T03:41:36.257Z,94.40
2018-07-15T03:44:05.727Z,94.50
2018-07-15T03:46:34.987Z,94.70
2018-07-15T03:49:03.906Z,94.80
2018-07-15T03:54:02.195Z,94.80
2018-07-15T03:56:31.026Z,95.20
2018-07-15T03:58:59.901Z,95.20
2018-07-15T04:01:28.715Z,95.30
2018-07-15T04:03:57.693Z,95.50
2018-07-15T04:06:27.102Z,95.50
2018-07-15T04:08:56.579Z,95.40
2018-07-15T04:11:25.384Z,95.50
2018-07-15T04:13:54.961Z,95.60
2018-07-15T04:16:23.829Z,95.60
2018-07-15T04:18:53.255Z,95.50
2018-07-15T04:23:50.705Z,95.50
2018-07-15T04:26:19.696Z,95.50
2018-07-15T04:28:48.545Z,95.40
2018-07-15T04:31:17.513Z,95.30
2018-07-15T04:33:46.564Z,95.50
2018-07-15T04:36:15.507Z,95.20
2018-07-15T04:41:12.911Z,95.00
2018-07-15T04:43:41.886Z,95.20
2018-07-15T04:46:10.712Z,94.80
2018-07-15T04:48:39.504Z,94.60
2018-07-15T04:51:08.576Z,94.80
2018-07-15T04:53:37.557Z,94.90
2018-07-15T04:56:06.509Z,94.90
2018-07-15T05:01:04.114Z,95.00
2018-07-15T05:03:32.999Z,95.00
2018-07-15T05:08:30.528Z,94.70
2018-07-15T05:10:59.537Z,94.50
2018-07-15T05:15:56.815Z,94.20
2018-07-15T05:18:25.823Z,93.90
2018-07-15T05:23:23.239Z,93.90
2018-07-15T05:25:52.101Z,93.30
2018-07-15T05:28:20.969Z,93.10
2018-07-15T05:33:18.495Z,92.50
2018-07-15T05:38:15.707Z,80.10
2018-07-15T05:43:13.409Z,62.10
2018-07-15T05:50:40.514Z,51.60
2018-07-15T05:53:09.610Z,47.70
2018-07-15T05:55:38.535Z,40.50
2018-07-15T05:58:07.483Z,40.90
2018-07-15T06:00:36.225Z,37.10
2018-07-15T06:03:05.369Z,37.60
2018-07-15T06:05:34.335Z,36.40
2018-07-15T06:10:31.686Z,32.80
2018-07-15T06:13:01.324Z,30.40
2018-07-15T06:15:31.207Z,30.90
2018-07-15T06:18:00.081Z,30.30
2018-07-15T06:20:28.986Z,29.60
2018-07-15T06:25:26.258Z,29.10
2018-07-15T06:27:55.073Z,28.80
2018-07-15T06:30:23.898Z,28.00
2018-07-15T06:32:52.795Z,27.10
2018-07-15T06:35:21.721Z,26.20
2018-07-15T06:37:50.662Z,26.70
2018-07-15T06:40:19.605Z,26.20
2018-07-15T06:47:45.230Z,24.40
2018-07-15T06:50:14.141Z,25.00
2018-07-15T06:52:42.882Z,24.30
2018-07-15T06:55:11.626Z,24.70
2018-07-15T06:57:40.582Z,23.50
2018-07-15T07:02:37.948Z,22.60
2018-07-15T07:05:07.267Z,22.60
2018-07-15T07:07:36.096Z,22.30
2018-07-15T07:10:04.742Z,22.70
2018-07-15T07:12:33.573Z,22.30
2018-07-15T07:15:02.333Z,22.00
2018-07-15T07:17:31.023Z,21.90
2018-07-15T07:19:59.759Z,20.90
2018-07-15T07:22:28.415Z,20.40
2018-07-15T07:24:57.099Z,19.90
2018-07-15T07:27:25.819Z,19.60
2018-07-15T07:29:54.570Z,19.20
2018-07-15T07:34:51.693Z,18.50
2018-07-15T07:37:20.465Z,18.50
2018-07-15T07:39:49.130Z,19.00
2018-07-15T07:42:17.806Z,19.00
2018-07-15T07:44:46.550Z,18.80
2018-07-15T07:47:15.370Z,17.80
2018-07-15T07:49:44.046Z,18.20
2018-07-15T07:52:12.788Z,17.50
2018-07-15T07:54:41.585Z,17.30
2018-07-15T07:57:10.273Z,17.70
2018-07-15T07:59:39.005Z,16.40
2018-07-15T08:07:04.639Z,17.20
2018-07-15T08:12:01.802Z,16.20
2018-07-15T08:14:32.142Z,15.80
2018-07-15T08:19:29.730Z,14.90
2018-07-15T08:21:58.462Z,15.40
2018-07-15T08:24:27.489Z,14.70
2018-07-15T08:29:24.703Z,15.00
2018-07-15T08:31:53.407Z,14.10
2018-07-15T08:36:50.943Z,14.20
2018-07-15T08:39:19.675Z,14.40
2018-07-15T08:44:17.205Z,14.40
2018-07-15T08:46:46.449Z,14.30
2018-07-15T08:49:15.209Z,14.30
2018-07-15T08:51:44.250Z,14.20
2018-07-15T08:54:12.873Z,14.10
2018-07-15T08:56:41.565Z,14.10
2018-07-15T08:59:10.302Z,14.40
2018-07-15T09:01:39.039Z,14.10
2018-07-15T09:04:07.729Z,14.70
2018-07-15T09:06:36.513Z,13.80
2018-07-15T09:09:05.833Z,13.50
2018-07-15T09:11:34.603Z,13.10
2018-07-15T09:14:03.786Z,13.60
2018-07-15T09:16:33.209Z,13.30
2018-07-15T09:19:02.197Z,12.30
2018-07-15T09:21:31.057Z,12.80
2018-07-15T09:24:00.234Z,12.10
2018-07-15T09:28:57.466Z,11.90
2018-07-15T09:31:27.327Z,12.00
2018-07-15T09:33:56.009Z,11.80
2018-07-15T09:36:24.734Z,11.70
2018-07-15T09:41:22.650Z,11.60
2018-07-15T09:43:51.418Z,11.80
2018-07-15T09:46:21.182Z,12.20
2018-07-15T09:48:49.968Z,11.10
2018-07-15T09:51:18.797Z,11.40
2018-07-15T09:53:48.223Z,11.50
2018-07-15T09:56:16.892Z,11.20
2018-07-15T09:58:45.936Z,11.20
2018-07-15T10:03:44.063Z,10.80
2018-07-15T10:06:13.445Z,10.70
2018-07-15T10:08:44.917Z,11.10
2018-07-15T10:11:13.607Z,11.40
2018-07-15T10:16:10.794Z,11.00
2018-07-15T10:21:07.901Z,11.00
2018-07-15T10:23:36.659Z,10.90
2018-07-15T10:26:05.440Z,11.20
2018-07-15T10:28:34.229Z,11.40
2018-07-15T10:31:02.925Z,11.70
2018-07-15T10:33:31.642Z,11.70
2018-07-15T10:36:00.338Z,12.50
2018-07-15T10:40:57.548Z,12.30
2018-07-15T10:43:26.370Z,12.50
2018-07-15T10:45:55.130Z,12.70
2018-07-15T10:50:52.216Z,13.50
2018-07-15T10:53:20.986Z,13.70
2018-07-15T10:55:49.690Z,14.10
2018-07-15T10:58:18.352Z,14.50
2018-07-15T11:00:48.233Z,15.10
2018-07-15T11:08:14.333Z,16.40
2018-07-15T11:10:43.026Z,16.50
2018-07-15T11:13:11.722Z,16.80
2018-07-15T11:15:40.401Z,17.00
2018-07-15T11:18:09.250Z,17.20
2018-07-15T11:20:39.103Z,17.10
2018-07-15T11:23:07.805Z,17.70
2018-07-15T11:25:36.581Z,16.90
2018-07-15T11:28:05.389Z,17.70
2018-07-15T11:30:34.978Z,18.20
2018-07-15T11:33:03.695Z,18.70
2018-07-15T11:40:29.248Z,18.50
2018-07-15T11:42:57.946Z,19.10
2018-07-15T11:45:26.643Z,19.30
2018-07-15T11:47:55.345Z,20.00
2018-07-15T11:50:24.047Z,20.50
2018-07-15T11:52:52.870Z,20.50
2018-07-15T11:55:21.570Z,20.90
2018-07-15T11:57:50.301Z,21.30
2018-07-15T12:00:19.009Z,20.30
2018-07-15T12:02:47.749Z,20.20
2018-07-15T12:05:16.474Z,22.00
2018-07-15T12:07:45.221Z,22.50
2018-07-15T12:10:13.941Z,22.50
2018-07-15T12:12:42.705Z,22.50
2018-07-15T12:15:11.368Z,22.20
2018-07-15T12:20:08.490Z,22.80
2018-07-15T12:22:37.205Z,23.00
2018-07-15T12:25:05.868Z,23.10
2018-07-15T12:27:34.594Z,23.90
2018-07-15T12:32:31.702Z,24.00
2018-07-15T12:35:00.496Z,23.80
2018-07-15T12:37:29.235Z,23.50
2018-07-15T12:39:57.978Z,23.60
2018-07-15T12:42:27.161Z,24.50
2018-07-15T12:44:55.954Z,23.30
2018-07-15T12:47:24.670Z,23.20
2018-07-15T12:49:53.362Z,23.10
2018-07-15T12:52:22.080Z,23.40
2018-07-15T12:54:50.788Z,23.20
2018-07-15T12:57:19.556Z,23.70
2018-07-15T12:59:48.295Z,23.00
2018-07-15T13:02:17.012Z,22.80
2018-07-15T13:09:42.489Z,23.70
2018-07-15T13:12:11.226Z,24.50
2018-07-15T13:14:39.945Z,24.70
2018-07-15T13:17:08.637Z,25.00
2018-07-15T13:19:37.693Z,25.10
2018-07-15T13:22:06.543Z,25.00
2018-07-15T13:24:35.415Z,24.70
2018-07-15T13:27:04.120Z,25.00
2018-07-15T13:29:34.024Z,25.60
2018-07-15T13:32:02.713Z,25.80
2018-07-15T13:34:31.601Z,26.20
2018-07-15T13:37:00.284Z,26.40
2018-07-15T13:39:29.034Z,27.10
2018-07-15T13:41:57.934Z,28.10
2018-07-15T13:44:26.487Z,28.10
2018-07-15T13:46:55.202Z,28.00
2018-07-15T13:51:52.310Z,27.80
2018-07-15T13:54:21.011Z,27.80
2018-07-15T13:56:49.738Z,28.20
2018-07-15T14:01:46.789Z,28.30
2018-07-15T14:04:15.551Z,28.80
2018-07-15T14:06:45.194Z,28.80
2018-07-15T14:09:13.861Z,29.70
2018-07-15T14:11:42.570Z,29.70
2018-07-15T14:16:39.671Z,29.10
2018-07-15T14:19:08.389Z,29.70
2018-07-15T14:21:37.626Z,29.20
2018-07-15T14:29:03.189Z,29.20
2018-07-15T14:31:31.978Z,28.50
2018-07-15T14:34:00.622Z,29.80
2018-07-15T14:36:29.330Z,30.30
2018-07-15T14:38:58.939Z,30.10
2018-07-15T14:43:57.903Z,30.20
2018-07-15T14:46:26.623Z,29.90
2018-07-15T14:51:25.122Z,30.70
2018-07-15T14:53:54.573Z,31.20
2018-07-15T14:56:23.292Z,31.80
2018-07-15T14:58:52.052Z,30.20
2018-07-15T15:01:20.794Z,31.30
2018-07-15T15:06:17.937Z,31.80
2018-07-15T15:08:46.692Z,32.10
2018-07-15T15:11:15.417Z,32.00
2018-07-15T15:13:44.815Z,32.30
2018-07-15T15:18:42.541Z,32.90
2018-07-15T15:21:11.258Z,33.10
2018-07-15T15:23:40.693Z,33.60
2018-07-15T15:26:09.911Z,33.60
2018-07-15T15:33:39.069Z,32.60
2018-07-15T15:36:07.778Z,32.60
2018-07-15T15:38:40.479Z,33.00
2018-07-15T15:41:09.684Z,33.10
2018-07-15T15:43:38.386Z,33.00
2018-07-15T15:46:07.126Z,33.00
2018-07-15T15:48:35.849Z,33.40
2018-07-15T15:51:04.562Z,33.00
2018-07-15T15:56:01.671Z,33.20
2018-07-15T15:58:30.374Z,33.70
2018-07-15T16:00:59.073Z,34.80
2018-07-15T16:03:27.790Z,34.60
2018-07-15T16:05:56.514Z,34.50
2018-07-15T16:08:25.234Z,34.60
2018-07-15T16:10:53.905Z,34.60
2018-07-15T16:13:22.692Z,34.80
2018-07-15T16:15:51.375Z,34.80
2018-07-15T16:18:20.107Z,34.50
2018-07-15T16:20:48.856Z,34.60
2018-07-15T16:23:17.640Z,35.60
2018-07-15T16:28:14.664Z,36.00
2018-07-15T16:30:44.509Z,33.70
2018-07-15T16:33:13.258Z,33.60
2018-07-15T16:35:41.959Z,34.80
2018-07-15T16:38:10.677Z,35.00
2018-07-15T16:40:39.741Z,34.10
2018-07-15T16:43:08.450Z,34.00
2018-07-15T16:45:37.136Z,34.50
2018-07-15T16:48:05.889Z,34.50
2018-07-15T16:50:34.621Z,34.10
2018-07-15T16:53:03.367Z,33.90
2018-07-15T16:55:32.086Z,33.70
2018-07-15T16:58:00.847Z,34.10
2018-07-15T17:00:29.620Z,34.30
2018-07-15T17:02:58.866Z,34.90
2018-07-15T17:08:02.554Z,35.40
2018-07-15T17:10:31.298Z,35.50
2018-07-15T17:13:00.021Z,35.20
2018-07-15T17:15:28.744Z,35.50
2018-07-15T17:17:57.469Z,35.80
2018-07-15T17:20:26.159Z,35.80
2018-07-15T17:25:23.312Z,35.50
2018-07-15T17:27:52.014Z,35.10
2018-07-15T17:30:20.780Z,35.10
2018-07-15T17:32:49.510Z,35.30
2018-07-15T17:35:20.263Z,35.40
2018-07-15T17:37:48.930Z,35.60
2018-07-15T17:40:17.690Z,35.90
2018-07-15T17:45:15.374Z,37.00
2018-07-15T17:50:12.543Z,37.40
2018-07-15T17:52:41.259Z,37.40
2018-07-15T17:55:10.240Z,37.40
2018-07-15T17:57:38.893Z,37.40
2018-07-15T18:00:07.618Z,38.40
2018-07-15T18:02:36.345Z,37.70
2018-07-15T18:05:05.011Z,37.70
2018-07-15T18:07:33.781Z,37.60
2018-07-15T18:12:30.843Z,38.00
2018-07-15T18:14:59.528Z,37.90
2018-07-15T18:17:28.236Z,37.80
2018-07-15T18:19:57.148Z,38.00
2018-07-15T18:22:25.715Z,38.90
2018-07-15T18:29:51.148Z,37.80
2018-07-15T18:32:19.868Z,38.30
2018-07-15T18:34:48.590Z,38.40
2018-07-15T18:39:45.666Z,38.90
2018-07-15T18:42:14.454Z,39.10
2018-07-15T18:44:43.112Z,39.30
2018-07-15T18:47:11.767Z,39.30
2018-07-15T18:54:37.218Z,40.10
2018-07-15T18:57:06.069Z,39.90
2018-07-15T18:59:34.838Z,40.20
2018-07-15T19:04:31.946Z,40.60
2018-07-15T19:07:00.632Z,40.60
2018-07-15T19:09:29.297Z,40.60
2018-07-15T19:11:57.970Z,40.50
2018-07-15T19:14:26.709Z,40.70
2018-07-15T19:16:55.386Z,41.10
2018-07-15T19:19:24.149Z,41.60
2018-07-15T19:21:52.831Z,41.10
2018-07-15T19:24:21.521Z,41.30
2018-07-15T19:26:50.596Z,41.50
2018-07-15T19:29:19.625Z,41.70
2018-07-15T19:34:16.722Z,42.00
2018-07-15T19:36:45.479Z,42.00
2018-07-15T19:39:14.240Z,42.10
2018-07-15T19:41:42.973Z,42.60
2018-07-15T19:44:11.706Z,42.60
2018-07-15T19:46:40.442Z,42.80
2018-07-15T19:49:09.100Z,43.20
2018-07-15T19:51:37.772Z,43.30
2018-07-15T19:54:06.494Z,44.00
2018-07-15T19:56:35.224Z,43.80
2018-07-15T19:59:03.934Z,43.90
2018-07-15T20:01:32.614Z,44.10
2018-07-15T20:04:01.454Z,44.10
2018-07-15T20:06:30.140Z,44.80
2018-07-15T20:08:59.189Z,44.60
2018-07-15T20:11:28.018Z,44.80
2018-07-15T20:13:56.751Z,44.80
2018-07-15T20:16:26.132Z,45.00
2018-07-15T20:18:54.850Z,45.10
2018-07-15T20:21:23.535Z,45.30
2018-07-15T20:23:52.363Z,45.30
2018-07-15T20:26:21.088Z,45.70
2018-07-15T20:28:49.800Z,45.70
2018-07-15T20:31:18.673Z,46.70
2018-07-15T20:33:47.377Z,46.10
2018-07-15T20:36:16.201Z,46.20
2018-07-15T20:38:44.876Z,46.60
2018-07-15T20:41:13.762Z,46.70
2018-07-15T20:43:42.426Z,47.10
2018-07-15T20:46:12.290Z,47.40
2018-07-15T20:48:41.049Z,47.20
2018-07-15T20:51:09.872Z,47.10
2018-07-15T20:53:38.552Z,48.00
2018-07-15T20:56:07.378Z,47.80
2018-07-15T20:58:36.434Z,47.70
2018-07-15T21:01:05.356Z,48.00
2018-07-15T21:03:34.162Z,48.00
2018-07-15T21:06:02.866Z,48.00
2018-07-15T21:08:31.554Z,48.40
2018-07-15T21:11:00.255Z,49.00
2018-07-15T21:13:28.978Z,48.70
2018-07-15T21:15:58.687Z,48.90
2018-07-15T21:18:28.299Z,48.70
2018-07-15T21:20:57.053Z,49.20
2018-07-15T21:23:25.865Z,49.20
2018-07-15T21:25:54.717Z,49.50
2018-07-15T21:28:24.713Z,49.50
2018-07-15T21:35:50.757Z,49.90
2018-07-15T21:38:19.519Z,50.30
2018-07-15T21:40:48.357Z,50.30
2018-07-15T21:43:17.154Z,50.90
2018-07-15T21:45:45.919Z,51.40
2018-07-15T21:48:14.621Z,50.70
2018-07-15T21:50:43.372Z,50.80
2018-07-15T21:53:13.122Z,51.20
2018-07-15T21:55:41.948Z,51.10
2018-07-15T21:58:10.697Z,51.40
2018-07-15T22:00:39.504Z,51.40
2018-07-15T22:03:08.306Z,51.60
2018-07-15T22:05:37.017Z,51.80
2018-07-15T22:08:17.367Z,48.40
2018-07-15T22:10:47.365Z,52.20
2018-07-15T22:13:16.062Z,52.20
2018-07-15T22:15:44.803Z,52.30
2018-07-15T22:18:13.542Z,53.20
2018-07-15T22:20:42.225Z,53.00
2018-07-15T22:23:11.000Z,52.90
2018-07-15T22:25:39.706Z,52.80
2018-07-15T22:28:08.436Z,53.50
2018-07-15T22:30:37.224Z,53.60
2018-07-15T22:33:06.274Z,54.00
2018-07-15T22:35:34.973Z,54.40
2018-07-15T22:38:03.794Z,54.70
2018-07-15T22:40:32.591Z,55.10
2018-07-15T22:43:01.306Z,55.20
2018-07-15T22:45:30.066Z,54.80
2018-07-15T22:47:58.798Z,55.60
2018-07-15T22:50:27.490Z,55.50
2018-07-15T22:52:56.254Z,55.80
2018-07-15T22:55:24.957Z,56.10
2018-07-15T22:57:53.711Z,56.30
2018-07-15T23:00:22.481Z,56.30
2018-07-15T23:07:54.733Z,57.30
2018-07-15T23:10:23.422Z,57.50
2018-07-15T23:12:53.144Z,58.00
2018-07-15T23:15:21.918Z,58.00
2018-07-15T23:17:50.732Z,58.10
2018-07-15T23:27:44.757Z,59.30
2018-07-15T23:30:13.501Z,59.30
2018-07-15T23:40:07.484Z,60.30
2018-07-15T23:42:36.558Z,60.90
2018-07-15T23:45:05.699Z,61.30
2018-07-15T23:47:35.058Z,61.50
2018-07-15T23:50:03.993Z,61.60
2018-07-15T23:52:32.701Z,62.20
2018-07-15T23:55:02.378Z,62.80
2018-07-15T23:57:31.552Z,62.90
